• Join FlightAware (Why Join?)
  • Login
  • US Flag 
05:52AM EDT


 

Airport Tracker/Info


-or-


 

Live Flight TrackerFlight Track Log ✈ AAY863 ✈ 06-Feb-2014 ✈ KCID - KPIE

Flight Track Log - Related Links

Times and Time Zones

All times are in EST time to prevent confusion due to time zone crossing. See the AAY863 flight status page for this flight to view local times or setup timezone preferences in your user account.

Time Position Orientation Groundspeed Altitude Reporting Facility
EST Latitude Longitude Course Direction KTS MPH feet Rate Location/Type
09:33PM 41.8803 -91.7528 232° Southwest 157 181 2,300  Level FlightAware ADS-B
09:34PM 41.8647 -91.7602 199° South 204 235 2,600 1,020 Climbing FlightAware ADS-B
09:34PM 41.8468 -91.7570 172° South 240 276 3,000 1,620 Climbing FlightAware ADS-B
09:34PM 41.8218 -91.7463 162° South 264 304 3,700 2,760 Climbing FlightAware ADS-B
09:35PM 41.7989 -91.7342 159° South 265 305 4,900 4,200 Climbing FlightAware ADS-B
09:35PM 41.7665 -91.7174 159° South 271 312 7,100 3,420 Climbing FlightAware ADS-B
09:36PM 41.7297 -91.7009 162° South 262 302 8,300 2,460 Climbing FlightAware ADS-B
09:36PM 41.7094 -91.6933 164° South 268 308 9,100 2,220 Climbing FlightAware ADS-B
09:36PM 41.6817 -91.6828 164° South 285 328 9,800 1,380 Climbing FlightAware ADS-B
09:37PM 41.6521 -91.6700 162° South 343 395 10,400 1,920 Climbing FlightAware ADS-B
09:39PM 41.4545 -91.4507 140° Southeast 408 470 15,400 2,220 Climbing FlightAware ADS-B
09:40PM 41.4036 -91.3925 140° Southeast 402 463 17,300 2,220 Climbing Chicago Center
09:41PM 41.3072 -91.2867 140° Southeast 409 471 19,100 1,800 Climbing Chicago Center
09:42PM 41.2164 -91.1858 140° Southeast 419 482 21,000 1,740 Climbing Chicago Center
09:43PM 41.1231 -91.0836 140° Southeast 430 495 22,700 1,440 Climbing Chicago Center
09:44PM 41.0281 -90.9767 140° Southeast 441 507 24,000 1,260 Climbing Chicago Center
09:45PM 40.9294 -90.8686 140° Southeast 457 526 25,300 1,260 Climbing Chicago Center
09:46PM 40.8264 -90.7569 141° Southeast 478 550 26,600 1,080 Climbing Chicago Center
09:47PM 40.7225 -90.6431 140° Southeast 487 560 27,600 1,020 Climbing Chicago Center
09:48PM 40.6150 -90.5272 141° Southeast 500 575 28,700 1,020 Climbing Chicago Center
09:49PM 40.4850 -90.3850 140° Southeast 509 586 29,800 1,140 Climbing Chicago Center
09:50PM 40.3769 -90.2672 140° Southeast 511 588 31,100 1,260 Climbing Chicago Center
09:51PM 40.2858 -90.1164 128° Southeast 533 613 32,500 1,260 Climbing Chicago Center
09:52PM 40.2336 -90.0256 127° Southeast 528 608 33,300 420 Climbing Kansas City Center
09:57PM 39.6741 -89.4487 127° Southeast 493 567 35,000 300 Climbing FlightAware ADS-B (KMDH)
09:57PM 39.6741 -89.4487 127° Southeast 497 572 35,000  Level FlightAware ADS-B (KMDH)
09:58PM 39.5281 -89.3033 142° Southeast 498 573 35,000 60 Level FlightAware ADS-B (KMDH)
09:59PM 39.5281 -89.3033 142° Southeast 497 572 35,100  Climbing FlightAware ADS-B (KMDH)
10:00PM 39.3243 -89.1020 143° Southeast 492 566 35,100 -60 Level FlightAware ADS-B (KMDH)
10:01PM 39.1599 -88.9405 143° Southeast 492 566 35,000 -60 Descending FlightAware ADS-B (KMDH)
10:03PM 39.0481 -88.8315 143° Southeast 492 566 35,000  Level FlightAware ADS-B (KMDH)
10:03PM 38.9869 -88.7719 143° Southeast 495 570 35,000  Level FlightAware ADS-B (KMDH)
10:04PM 38.9116 -88.6988 143° Southeast 498 573 35,000  Level FlightAware ADS-B (KMDH)
10:04PM 38.8353 -88.6249 143° Southeast 502 578 35,000  Level FlightAware ADS-B (KMDH)
10:05PM 38.7630 -88.5551 143° Southeast 503 579 35,000  Level FlightAware ADS-B (KMDH)
10:06PM 38.7021 -88.4966 143° Southeast 504 580 35,000  Level FlightAware ADS-B (KMDH)
10:06PM 38.6138 -88.4119 143° Southeast 505 581 35,000  Level FlightAware ADS-B (KMDH)
10:07PM 38.5331 -88.3342 143° Southeast 503 579 35,000  Level FlightAware ADS-B (KMDH)
10:08PM 38.5175 -88.3192 143° Southeast 502 578 35,000  Level FlightAware ADS-B (KMDH)
10:09PM 38.3812 -88.1893 143° Southeast 501 577 35,000  Level FlightAware ADS-B (KMDH)
10:10PM 38.2303 -88.0538 145° Southeast 496 571 35,000  Level FlightAware ADS-B (KMDH)
10:11PM 38.1554 -87.9915 147° Southeast 497 572 35,000  Level FlightAware ADS-B (KMDH)
10:12PM 38.0390 -87.8924 146° Southeast 497 572 35,000  Level FlightAware ADS-B (KMDH)
10:13PM 38.0390 -87.8924 146° Southeast 495 570 35,000  Level FlightAware ADS-B (KMDH)
10:14PM 37.8377 -87.7186 146° Southeast 496 571 35,000  Level FlightAware ADS-B (KBRY)
10:17PM 37.4461 -87.4716 153° Southeast 477 549 35,000  Level FlightAware ADS-B (KBRY)
10:17PM 37.3518 -87.4201 157° South 477 549 35,000  Level FlightAware ADS-B (KBRY)
10:20PM 37.0884 -87.2771 157° South 480 552 35,100  Climbing FlightAware ADS-B (KBRY)
10:21PM 37.0614 -87.2624 157° South 477 549 35,100 -60 Level FlightAware ADS-B (KBRY)
10:21PM 36.8719 -87.1592 157° South 477 549 35,000 -60 Descending Memphis Center
10:22PM 36.7514 -87.0947 157° South 470 541 35,000  Level Memphis Center
10:23PM 36.6314 -87.0300 157° South 466 536 35,000  Level Memphis Center
10:24PM 36.5117 -86.9667 157° South 464 534 35,000  Level Memphis Center
10:25PM 36.3844 -86.8994 157° South 462 532 35,000  Level Memphis Center
10:26PM 36.2628 -86.8350 157° South 462 532 35,000  Level Memphis Center
10:27PM 36.1425 -86.7725 157° South 463 533 35,000  Level Memphis Center
10:29PM 36.0225 -86.7083 157° South 464 534 35,000  Level Memphis Center
10:30PM 35.9042 -86.6467 157° South 460 529 35,000  Level Memphis Center
10:31PM 35.7847 -86.5839 157° South 461 531 35,000  Level Memphis Center
10:32PM 35.6656 -86.5214 157° South 462 532 35,000 -240 Level Memphis Center
10:33PM 35.5472 -86.4608 157° South 457 526 34,600 -720 Descending Memphis Center
10:34PM 35.4267 -86.3981 157° South 463 533 33,600 -1,080 Descending Memphis Center
10:34PM 35.3169 -86.3422 157° South 476 548 32,700 -1,020 Descending Atlanta Center
10:35PM 35.1950 -86.2778 157° South 482 555 31,800 -900 Descending Atlanta Center
10:36PM 35.0917 -86.2244 157° South 466 536 31,000 -420 Descending Atlanta Center
10:37PM 34.9739 -86.1631 157° South 460 529 31,000  Level Atlanta Center
10:38PM 34.8558 -86.1042 158° South 460 529 31,000  Level Atlanta Center
10:39PM 34.7381 -86.0458 158° South 460 529 31,000  Level Atlanta Center
10:40PM 34.6219 -85.9850 157° South 460 529 31,000  Level Atlanta Center
10:41PM 34.5039 -85.9267 158° South 455 524 31,000  Level Atlanta Center
10:42PM 34.3903 -85.8664 156° South 450 518 31,000 -60 Level Atlanta Center
10:43PM 34.2658 -85.8058 158° South 450 518 30,900  Descending Atlanta Center
10:44PM 34.1519 -85.7483 157° South 441 507 31,000  Climbing Atlanta Center
10:45PM 34.0336 -85.6906 158° South 451 519 31,000  Level Atlanta Center
10:46PM 33.9156 -85.6333 158° South 451 519 31,000  Level Atlanta Center
10:47PM 33.8014 -85.5761 157° South 451 519 31,000  Level Atlanta Center
10:48PM 33.6853 -85.5192 158° South 451 519 31,000  Level Atlanta Center
10:49PM 33.5711 -85.4650 158° South 446 513 31,000  Level Atlanta Center
10:50PM 33.4569 -85.4083 158° South 446 513 31,000  Level Atlanta Center
10:51PM 33.3428 -85.3517 157° South 446 513 31,000  Level Atlanta Center
10:52PM 33.2283 -85.2978 158° South 446 513 31,000  Level Atlanta Center
10:53PM 33.1164 -85.2417 157° South 451 519 31,000  Level Atlanta Center
10:54PM 33.0125 -85.1908 158° South 451 519 31,000  Level Atlanta Center
10:55PM 32.8814 -85.1369 161° South 451 519 31,000  Level Atlanta Center
10:56PM 32.7753 -85.1111 168° South 429 494 31,000  Level Atlanta Center
10:57PM 32.6586 -85.0725 164° South 436 502 31,000  Level Atlanta Center
10:58PM 32.5400 -85.0319 164° South 436 502 31,000  Level Atlanta Center
10:59PM 32.4233 -84.9936 164° South 436 502 31,000  Level Atlanta Center
11:00PM 32.3067 -84.9531 164° South 436 502 31,000  Level Atlanta Center
11:01PM 32.1922 -84.9150 164° South 436 502 31,000  Level Atlanta Center
11:04PM 31.9097 -84.8211 164° South 440 506 31,000  Level Jacksonville Center
11:05PM 31.7914 -84.7794 163° South 435 501 31,000  Level Jacksonville Center
11:06PM 31.6728 -84.7431 165° South 435 501 31,000  Level Jacksonville Center
11:11PM 31.0263 -84.4257 165° South 453 521 31,000  Level FlightAware ADS-B (KTLH)
11:12PM 30.9528 -84.3844 154° Southeast 454 522 31,000  Level FlightAware ADS-B (KTLH)
11:13PM 30.9009 -84.3554 154° Southeast 453 521 31,000  Level FlightAware ADS-B (KTLH)
11:13PM 30.8129 -84.3060 154° Southeast 450 518 31,000  Level FlightAware ADS-B (KTLH)
11:14PM 30.7402 -84.2653 154° Southeast 449 517 31,000  Level FlightAware ADS-B (KTLH)
11:14PM 30.6749 -84.2288 154° Southeast 446 513 31,000  Level FlightAware ADS-B (KTLH)
11:16PM 30.4643 -84.1118 154° Southeast 447 514 31,000  Level FlightAware ADS-B (KTLH)
11:17PM 30.3559 -84.0518 154° Southeast 449 517 31,000  Level FlightAware ADS-B (KTLH)
11:18PM 30.2820 -84.0109 154° Southeast 450 518 31,000  Level FlightAware ADS-B (KTLH)
11:18PM 30.2183 -83.9757 154° Southeast 450 518 31,000  Level FlightAware ADS-B (KTLH)
11:19PM 30.1362 -83.9305 155° Southeast 449 517 31,000  Level FlightAware ADS-B (KTLH)
11:20PM 30.0605 -83.8888 155° Southeast 449 517 31,000 -120 Level FlightAware ADS-B (KTLH)
11:21PM 29.9708 -83.8397 155° Southeast 443 510 30,900  Descending Jacksonville Center
11:22PM 29.8564 -83.7786 155° Southeast 443 510 31,000  Climbing Jacksonville Center
11:23PM 29.7419 -83.7156 154° Southeast 443 510 31,000  Level Jacksonville Center
11:24PM 29.6275 -83.6522 154° Southeast 443 510 31,000  Level Jacksonville Center
11:25PM 29.5150 -83.5917 155° Southeast 448 516 31,000  Level Jacksonville Center
11:26PM 29.3986 -83.5314 156° South 448 516 31,000 -900 Level Jacksonville Center
11:27PM 29.2839 -83.4686 154° Southeast 448 516 29,200 -2,220 Descending Jacksonville Center
11:28PM 29.1694 -83.4061 155° Southeast 453 521 26,600 -2,520 Descending Jacksonville Center
11:29PM 29.0569 -83.3439 154° Southeast 453 521 24,200 -2,340 Descending Jacksonville Center
11:30PM 28.9486 -83.2864 155° Southeast 447 514 22,000 -1,980 Descending Jacksonville Center
11:31PM 28.8486 -83.2317 154° Southeast 426 490 20,300 -1,740 Descending Jacksonville Center
11:32PM 28.7486 -83.1767 154° Southeast 403 464 18,600 -1,680 Descending Jacksonville Center
11:33PM 28.6167 -83.1167 158° South 362 417 16,400 -1,620 Descending Tampa TRACON
11:34PM 28.5500 -83.0667 147° Southeast 346 398 15,100 -1,500 Descending Tampa TRACON
11:35PM 28.4667 -83.0333 161° South 327 376 13,700 -1,380 Descending Tampa TRACON
11:36PM 28.3833 -82.9833 152° Southeast 322 371 12,400 -1,200 Descending Tampa TRACON
11:37PM 28.3000 -82.9500 161° South 303 349 11,400 -1,080 Descending Tampa TRACON
11:38PM 28.2333 -82.9167 156° South 289 333 10,400 -900 Descending Tampa TRACON
11:39PM 28.1667 -82.8833 156° South 288 331 9,800 -1,020 Descending Tampa TRACON
11:40PM 28.0833 -82.8667 170° South 279 321 8,400 -1,500 Descending Tampa TRACON
11:41PM 28.0167 -82.8333 156° South 276 318 6,800 -1,620 Descending Tampa TRACON
11:42PM 27.9500 -82.8167 168° South 267 307 5,400 -960 Descending Tampa TRACON
11:43PM 27.8833 -82.7833 156° South 209 241 5,000 -480 Descending Tampa TRACON
11:44PM 27.8333 -82.7667 164° South 177 204 4,500 -780 Descending Tampa TRACON
11:45PM 27.7833 -82.7500 164° South 175 201 3,500 -780 Descending Tampa TRACON
11:46PM 27.7500 -82.7667 204° Southwest 174 200 3,000 -480 Descending Tampa TRACON
11:47PM 27.7000 -82.7500 164° South 184 212 2,600 -540 Descending Tampa TRACON
11:48PM 27.7000 -82.7000 90° East 166 191 2,000 -360 Descending Tampa TRACON
11:49PM 27.7500 -82.6667 31° Northeast 171 197 2,000  Level Tampa TRACON
11:50PM 27.7833 -82.6667 360° North 140 161 2,000 -300 Level Tampa TRACON
11:51PM 27.8333 -82.6667 360° North 139 160 1,500 -600 Descending Tampa TRACON
11:52PM 27.8667 -82.6833 336° Northwest 128 147 800 -720 Descending Tampa TRACON